Time;durP1;ratioP1;P1;durP2;ratioP2;P2;SDS_P1;SDS_P2;PMS_P1;PMS_P2;Temp;Humidity;BMP_temperature;BMP_pressure;BME280_temperature;BME280_humidity;BME280_pressure;Samples;Min_cycle;Max_cycle;Signal;HPM_P1;HPM_P2
2021/12/26 00:00:29;;;;;;;4.18;3.13;;;21.00;25.30;;;;;;5054994;28;20043;-56
2021/12/26 00:02:55;;;;;;;3.75;2.95;;;21.00;25.30;;;;;;5054807;28;20064;-54
2021/12/26 00:05:22;;;;;;;3.83;2.78;;;21.00;25.20;;;;;;5053475;28;20425;-59
2021/12/26 00:07:48;;;;;;;3.30;2.58;;;21.00;25.20;;;;;;5035766;28;20033;-55
2021/12/26 00:10:17;;;;;;;3.80;2.70;;;21.00;25.20;;;;;;5050064;28;20024;-58
2021/12/26 00:12:43;;;;;;;3.00;2.28;;;21.00;25.20;;;;;;5036393;28;20033;-55
2021/12/26 00:15:09;;;;;;;3.03;2.45;;;20.90;25.10;;;;;;5054869;28;20450;-58
2021/12/26 00:17:36;;;;;;;3.47;2.28;;;21.00;25.10;;;;;;5039153;28;20053;-54
2021/12/26 00:20:05;;;;;;;3.03;2.38;;;20.90;25.10;;;;;;5053866;28;20112;-56
2021/12/26 00:22:30;;;;;;;3.08;2.42;;;20.90;25.10;;;;;;5037906;28;20103;-54
2021/12/26 00:24:56;;;;;;;3.33;2.25;;;20.90;25.00;;;;;;5051960;28;20059;-58
2021/12/26 00:27:22;;;;;;;2.53;1.98;;;20.90;25.00;;;;;;5035021;28;20029;-56
2021/12/26 00:29:48;;;;;;;3.75;2.55;;;20.90;25.00;;;;;;5034490;28;20083;-57
2021/12/26 00:32:14;;;;;;;2.85;2.17;;;20.90;25.00;;;;;;5018502;28;20084;-53
2021/12/26 00:34:40;;;;;;;2.95;2.00;;;20.90;25.00;;;;;;5033687;28;20033;-52
2021/12/26 00:37:07;;;;;;;3.28;2.10;;;20.90;25.10;;;;;;5054938;28;20064;-56
2021/12/26 00:39:35;;;;;;;2.33;1.70;;;20.90;25.00;;;;;;5036641;28;20024;-57
2021/12/26 00:42:02;;;;;;;2.13;1.73;;;20.90;25.00;;;;;;5037357;28;20115;-55
2021/12/26 00:44:28;;;;;;;2.33;1.67;;;20.90;25.00;;;;;;5054021;28;20024;-56
2021/12/26 00:46:54;;;;;;;2.95;2.15;;;20.80;25.00;;;;;;5055155;28;20036;-57
2021/12/26 00:49:21;;;;;;;2.38;1.73;;;20.80;24.90;;;;;;5066099;28;20309;-57
2021/12/26 00:51:48;;;;;;;3.10;1.75;;;20.80;25.00;;;;;;5057097;28;20021;-57
2021/12/26 00:54:14;;;;;;;1.65;1.42;;;20.80;25.00;;;;;;5048656;28;20116;-56
2021/12/26 00:56:40;;;;;;;2.50;1.95;;;20.80;25.00;;;;;;5044347;28;20116;-52
2021/12/26 00:59:06;;;;;;;2.25;1.70;;;20.80;25.00;;;;;;5019451;28;20036;-58
2021/12/26 01:01:32;;;;;;;2.40;1.80;;;20.80;25.00;;;;;;5037194;28;20029;-50
2021/12/26 01:03:57;;;;;;;2.47;1.70;;;20.80;24.90;;;;;;5007191;28;20062;-53
2021/12/26 01:06:24;;;;;;;1.83;1.60;;;20.80;24.90;;;;;;5014073;28;20022;-58
2021/12/26 01:08:51;;;;;;;1.67;1.15;;;20.80;24.90;;;;;;5003098;28;20020;-59
2021/12/26 01:11:33;;;;;;;2.95;1.70;;;20.80;24.90;;;;;;5013800;28;20437;-53
2021/12/26 01:14:01;;;;;;;2.45;1.58;;;20.70;24.80;;;;;;5009836;28;20030;-58
2021/12/26 01:16:49;;;;;;;2.40;1.55;;;20.70;24.80;;;;;;4994084;28;20042;-61
2021/12/26 01:19:19;;;;;;;1.63;1.48;;;20.70;24.80;;;;;;5012781;28;20053;-59
2021/12/26 01:21:45;;;;;;;2.55;1.70;;;20.70;24.90;;;;;;5010995;28;20040;-59
2021/12/26 01:24:15;;;;;;;2.38;1.40;;;20.70;24.80;;;;;;5017416;28;20354;-56
2021/12/26 01:26:42;;;;;;;1.30;1.10;;;20.70;24.80;;;;;;5005578;28;20022;-57
2021/12/26 01:29:09;;;;;;;1.55;1.25;;;20.70;24.80;;;;;;5016680;28;20040;-53
2021/12/26 01:31:39;;;;;;;2.35;1.50;;;20.70;24.80;;;;;;5005836;28;20022;-58
2021/12/26 01:34:41;;;;;;;1.38;1.00;;;20.70;24.80;;;;;;4966883;28;20054;-60
2021/12/26 01:37:20;;;;;;;2.35;1.55;;;20.60;24.80;;;;;;4996665;28;20353;-59
2021/12/26 01:40:06;;;;;;;1.77;1.50;;;20.70;24.90;;;;;;5007776;28;20396;-58
2021/12/26 01:42:40;;;;;;;1.83;1.05;;;20.60;24.80;;;;;;5016702;28;20515;-57
2021/12/26 01:45:17;;;;;;;1.55;1.20;;;20.70;25.40;;;;;;5016078;28;20038;-50
2021/12/26 01:48:01;;;;;;;1.98;1.33;;;20.70;24.90;;;;;;5016755;28;20425;-53
2021/12/26 01:50:29;;;;;;;1.70;1.25;;;20.60;24.80;;;;;;5016296;28;20026;-55
2021/12/26 01:52:55;;;;;;;2.65;1.48;;;20.60;24.80;;;;;;5013878;28;20034;-56
2021/12/26 01:55:36;;;;;;;1.95;1.25;;;20.60;24.80;;;;;;5014785;28;20042;-56
2021/12/26 01:58:04;;;;;;;1.13;0.95;;;20.60;24.80;;;;;;5014680;28;20026;-54
2021/12/26 02:00:32;;;;;;;1.52;1.08;;;20.60;24.80;;;;;;5016392;28;20458;-56
2021/12/26 02:02:58;;;;;;;1.52;1.20;;;20.60;24.80;;;;;;5023960;28;20072;-57
2021/12/26 02:05:24;;;;;;;1.45;1.00;;;20.60;24.70;;;;;;5036193;28;20088;-60
2021/12/26 02:07:55;;;;;;;1.30;0.95;;;20.60;24.80;;;;;;5033061;28;20341;-56
2021/12/26 02:10:21;;;;;;;1.92;1.10;;;20.50;24.70;;;;;;5035312;28;20048;-53
2021/12/26 02:12:47;;;;;;;1.63;0.98;;;20.50;24.70;;;;;;5037123;28;20021;-58
2021/12/26 02:15:13;;;;;;;1.70;1.35;;;20.50;24.70;;;;;;5035634;28;20452;-59
2021/12/26 02:17:57;;;;;;;1.88;1.10;;;20.50;24.70;;;;;;5033104;28;20044;-57
2021/12/26 02:23:44;;;;;;;1.58;0.95;;;20.50;24.70;;;;;;5010603;28;20029;-55
2021/12/26 02:28:44;;;;;;;1.88;0.98;;;20.50;24.70;;;;;;5034509;28;20352;-56
2021/12/26 02:31:11;;;;;;;1.45;1.00;;;20.50;24.70;;;;;;5036406;28;20032;-56
2021/12/26 02:33:39;;;;;;;1.65;1.00;;;20.50;24.70;;;;;;5024916;28;20032;-53
2021/12/26 02:36:06;;;;;;;1.42;0.88;;;20.50;24.60;;;;;;5036327;28;20472;-55
2021/12/26 02:38:33;;;;;;;1.40;1.00;;;20.50;24.60;;;;;;5036567;28;20025;-56
2021/12/26 02:41:00;;;;;;;1.33;0.80;;;20.50;24.60;;;;;;5018857;28;20105;-54
2021/12/26 02:43:29;;;;;;;0.98;0.88;;;20.50;24.60;;;;;;5032307;28;20053;-55
2021/12/26 02:45:55;;;;;;;1.55;0.95;;;20.50;24.60;;;;;;5016569;28;20107;-56
2021/12/26 02:48:22;;;;;;;1.00;0.90;;;20.40;24.60;;;;;;5031291;28;20067;-60
2021/12/26 02:50:56;;;;;;;0.95;0.73;;;20.40;24.50;;;;;;5016166;28;20125;-55
2021/12/26 02:53:24;;;;;;;1.27;0.90;;;20.40;24.50;;;;;;5031990;28;20044;-58
2021/12/26 02:55:52;;;;;;;1.23;0.90;;;20.40;24.50;;;;;;5034064;28;20034;-52
2021/12/26 02:58:18;;;;;;;1.20;0.90;;;20.40;24.50;;;;;;5035958;28;20021;-54
2021/12/26 03:00:59;;;;;;;2.47;0.80;;;20.40;24.50;;;;;;5035584;28;20036;-58
2021/12/26 03:03:25;;;;;;;1.48;0.70;;;20.40;24.50;;;;;;5042483;28;20387;-55
2021/12/26 03:05:59;;;;;;;1.25;0.80;;;20.40;24.50;;;;;;5048021;28;20029;-55
2021/12/26 03:08:25;;;;;;;1.13;0.80;;;20.40;24.50;;;;;;5052558;28;20108;-58
2021/12/26 03:10:52;;;;;;;0.88;0.73;;;20.40;24.50;;;;;;5030787;28;20132;-55
2021/12/26 03:13:20;;;;;;;0.90;0.75;;;20.40;24.50;;;;;;5051894;28;20026;-56
2021/12/26 03:15:45;;;;;;;1.48;1.00;;;20.40;24.50;;;;;;5052721;28;20036;-55
2021/12/26 03:18:13;;;;;;;1.38;0.80;;;20.40;24.50;;;;;;5035550;28;20040;-52
2021/12/26 03:20:42;;;;;;;1.20;0.98;;;20.40;24.50;;;;;;5034593;28;20036;-56
2021/12/26 03:23:11;;;;;;;1.00;0.60;;;20.40;24.50;;;;;;5037078;28;20033;-55
2021/12/26 03:25:37;;;;;;;1.15;0.80;;;20.30;24.40;;;;;;5051222;28;20036;-59
2021/12/26 03:28:06;;;;;;;1.10;0.70;;;20.30;24.40;;;;;;5054266;28;20032;-57
2021/12/26 03:30:33;;;;;;;1.50;0.90;;;20.30;24.40;;;;;;5054299;28;20117;-59
2021/12/26 03:33:01;;;;;;;1.20;0.82;;;20.30;24.40;;;;;;5036792;28;20029;-58
2021/12/26 03:35:29;;;;;;;1.05;0.50;;;20.30;24.40;;;;;;5055892;28;20425;-52
2021/12/26 03:37:56;;;;;;;0.95;0.70;;;20.30;24.40;;;;;;5037138;28;20033;-59
2021/12/26 03:40:55;;;;;;;0.93;0.68;;;20.30;24.40;;;;;;5035326;28;20033;-57
2021/12/26 03:43:22;;;;;;;1.75;0.85;;;20.30;24.40;;;;;;5036722;28;20018;-53
2021/12/26 03:45:51;;;;;;;0.88;0.60;;;20.30;24.40;;;;;;5037149;28;20021;-56
2021/12/26 03:48:19;;;;;;;1.20;0.65;;;20.30;24.40;;;;;;5032015;28;20025;-55
2021/12/26 03:50:45;;;;;;;0.88;0.60;;;20.30;24.40;;;;;;5033282;28;20187;-56
2021/12/26 03:53:13;;;;;;;0.80;0.63;;;20.30;24.30;;;;;;5019860;28;20028;-56
2021/12/26 03:55:42;;;;;;;1.00;0.70;;;20.30;24.30;;;;;;5032421;28;20040;-57
2021/12/26 03:58:10;;;;;;;0.70;0.60;;;20.20;24.30;;;;;;5037499;28;20099;-56
2021/12/26 04:00:39;;;;;;;1.02;0.63;;;20.20;24.80;;;;;;5036718;28;20340;-58
2021/12/26 04:03:05;;;;;;;0.93;0.50;;;20.20;24.30;;;;;;5036754;28;20052;-57
2021/12/26 04:05:38;;;;;;;0.98;0.55;;;20.30;24.30;;;;;;5036912;28;20074;-57
2021/12/26 04:08:04;;;;;;;1.27;0.65;;;20.20;24.20;;;;;;5055074;28;20114;-56
2021/12/26 04:10:31;;;;;;;0.90;0.60;;;20.20;24.20;;;;;;5037292;28;20080;-58
2021/12/26 04:12:58;;;;;;;1.58;0.75;;;20.20;24.20;;;;;;5019905;28;20067;-57
2021/12/26 04:15:24;;;;;;;1.35;0.75;;;20.20;24.20;;;;;;5037408;28;20033;-55
2021/12/26 04:17:54;;;;;;;1.00;0.50;;;20.20;24.20;;;;;;5019091;28;20122;-55
2021/12/26 04:20:22;;;;;;;1.00;0.60;;;20.20;24.20;;;;;;5018308;28;20095;-58
2021/12/26 04:22:50;;;;;;;0.93;0.60;;;20.20;24.20;;;;;;5015226;28;20052;-53
2021/12/26 04:25:15;;;;;;;0.80;0.60;;;20.20;24.20;;;;;;5037192;28;20043;-55
2021/12/26 04:27:41;;;;;;;0.60;0.43;;;20.20;24.20;;;;;;5019084;28;20021;-55
2021/12/26 04:30:11;;;;;;;2.28;0.40;;;20.20;24.20;;;;;;5021367;28;20029;-56
2021/12/26 04:32:37;;;;;;;0.60;0.50;;;20.20;24.20;;;;;;5039151;28;20025;-57
2021/12/26 04:35:04;;;;;;;0.80;0.50;;;20.10;24.10;;;;;;5054560;28;20032;-56
2021/12/26 04:37:30;;;;;;;0.68;0.63;;;20.20;24.20;;;;;;5035241;28;20043;-54
2021/12/26 04:39:56;;;;;;;0.90;0.52;;;20.10;24.10;;;;;;5019679;28;20116;-54
2021/12/26 04:42:24;;;;;;;0.73;0.50;;;20.10;24.10;;;;;;5033741;28;20384;-55
2021/12/26 04:45:09;;;;;;;0.80;0.50;;;20.10;24.10;;;;;;5036815;28;20025;-59
2021/12/26 04:47:54;;;;;;;0.90;0.60;;;20.10;24.10;;;;;;5054834;28;20047;-54
2021/12/26 04:50:23;;;;;;;0.93;0.60;;;20.10;24.10;;;;;;5037127;28;20079;-59
2021/12/26 04:52:57;;;;;;;0.93;0.75;;;20.10;24.10;;;;;;5036871;28;20025;-56
2021/12/26 04:55:25;;;;;;;0.65;0.50;;;20.10;24.10;;;;;;5036647;28;20051;-56
2021/12/26 04:57:52;;;;;;;0.50;0.50;;;20.10;24.10;;;;;;5035975;28;20082;-55
2021/12/26 05:00:22;;;;;;;0.70;0.50;;;20.10;24.10;;;;;;5036539;28;20035;-58
2021/12/26 05:02:49;;;;;;;1.23;0.80;;;20.10;24.00;;;;;;5050661;28;20057;-58
2021/12/26 05:05:15;;;;;;;0.85;0.45;;;20.10;24.10;;;;;;5034861;28;20033;-57
2021/12/26 05:07:43;;;;;;;0.60;0.50;;;20.00;24.00;;;;;;5051816;28;20432;-56
2021/12/26 05:10:12;;;;;;;1.02;0.60;;;20.10;24.10;;;;;;5036706;28;20036;-56
2021/12/26 05:12:39;;;;;;;0.82;0.70;;;20.10;24.00;;;;;;5050269;28;20323;-54
2021/12/26 05:15:08;;;;;;;0.60;0.40;;;20.00;24.00;;;;;;5053662;28;20403;-54
2021/12/26 05:17:35;;;;;;;0.25;0.25;;;20.00;24.00;;;;;;5047742;28;20025;-55
2021/12/26 05:20:03;;;;;;;0.60;0.60;;;20.00;24.00;;;;;;5037043;28;20029;-54
2021/12/26 05:22:29;;;;;;;0.93;0.50;;;20.00;24.00;;;;;;5029865;28;20120;-54
2021/12/26 05:24:55;;;;;;;0.82;0.70;;;20.00;24.00;;;;;;5024091;28;20347;-54
2021/12/26 05:27:21;;;;;;;0.60;0.50;;;20.00;24.00;;;;;;5035489;28;20068;-54
2021/12/26 05:29:46;;;;;;;0.50;0.40;;;20.00;24.00;;;;;;5042820;28;20044;-51
2021/12/26 05:32:12;;;;;;;0.90;0.60;;;20.00;24.00;;;;;;5034186;28;20025;-54
2021/12/26 05:34:38;;;;;;;0.88;0.57;;;20.00;24.00;;;;;;5018649;28;20026;-56
2021/12/26 05:37:04;;;;;;;1.80;0.63;;;20.00;24.00;;;;;;5032738;28;20029;-54
2021/12/26 05:39:32;;;;;;;0.88;0.60;;;20.00;23.90;;;;;;5027226;28;20037;-53
2021/12/26 05:41:58;;;;;;;0.52;0.40;;;20.00;23.90;;;;;;5032124;28;20025;-55
2021/12/26 05:44:33;;;;;;;0.60;0.30;;;20.00;23.90;;;;;;5026671;28;20121;-56
2021/12/26 05:47:02;;;;;;;0.82;0.40;;;20.00;24.00;;;;;;5048988;28;20025;-59
2021/12/26 05:49:36;;;;;;;0.88;0.50;;;20.00;24.00;;;;;;5034495;28;20032;-57
2021/12/26 05:52:11;;;;;;;0.70;0.38;;;20.00;24.00;;;;;;5036784;28;20029;-55
2021/12/26 05:54:48;;;;;;;0.50;0.40;;;20.00;24.00;;;;;;5035799;28;20036;-56
2021/12/26 05:57:15;;;;;;;0.70;0.60;;;20.00;24.00;;;;;;5036075;28;20028;-57
2021/12/26 05:59:42;;;;;;;0.95;0.45;;;19.90;23.90;;;;;;5026884;28;20021;-53
2021/12/26 06:02:08;;;;;;;1.55;0.50;;;19.90;23.90;;;;;;5047508;28;20111;-56
2021/12/26 06:04:36;;;;;;;0.60;0.30;;;19.90;23.90;;;;;;5035472;28;20036;-54
2021/12/26 06:07:03;;;;;;;0.80;0.40;;;19.90;23.90;;;;;;5037236;28;20364;-54
2021/12/26 06:09:29;;;;;;;0.32;0.30;;;19.90;23.90;;;;;;5035478;28;20075;-57
2021/12/26 06:11:55;;;;;;;0.88;0.50;;;19.90;23.90;;;;;;5040352;28;20025;-56
2021/12/26 06:14:21;;;;;;;0.45;0.45;;;19.90;23.90;;;;;;5033976;28;20447;-57
2021/12/26 06:16:47;;;;;;;0.60;0.30;;;19.90;23.90;;;;;;5039098;28;20041;-55
2021/12/26 06:19:42;;;;;;;0.60;0.38;;;19.90;23.90;;;;;;5045802;28;20033;-58
2021/12/26 06:22:26;;;;;;;0.63;0.47;;;19.90;23.90;;;;;;5039409;28;20172;-52
2021/12/26 06:25:18;;;;;;;0.50;0.32;;;19.90;23.90;;;;;;5033833;28;20044;-53
2021/12/26 06:27:52;;;;;;;0.47;0.40;;;19.90;23.90;;;;;;5038889;28;20052;-57
2021/12/26 06:30:47;;;;;;;0.50;0.50;;;19.90;23.90;;;;;;5057309;28;20103;-57
2021/12/26 06:33:46;;;;;;;0.40;0.40;;;19.80;23.90;;;;;;5056125;28;20065;-54
2021/12/26 06:36:30;;;;;;;0.47;0.40;;;19.80;23.90;;;;;;5057471;28;20052;-53
2021/12/26 06:39:14;;;;;;;0.35;0.30;;;19.80;23.90;;;;;;5036978;28;20041;-57
2021/12/26 06:41:58;;;;;;;0.80;0.50;;;19.80;23.90;;;;;;5040106;28;20036;-60
2021/12/26 06:44:39;;;;;;;0.63;0.50;;;19.80;23.90;;;;;;5057415;28;20290;-58
2021/12/26 06:47:13;;;;;;;;;;;19.80;23.90;;;;;;5037475;28;20035;-55
2021/12/26 06:49:48;;;;;;;0.45;0.30;;;19.80;23.90;;;;;;5039821;28;19958;-54
2021/12/26 06:52:14;;;;;;;0.50;0.30;;;19.80;23.90;;;;;;5037675;28;20114;-53
2021/12/26 06:54:40;;;;;;;0.85;0.60;;;19.70;23.80;;;;;;5057272;28;20044;-54
2021/12/26 06:57:06;;;;;;;1.05;0.40;;;19.80;24.40;;;;;;5054844;28;20031;-56
2021/12/26 06:59:32;;;;;;;0.68;0.45;;;19.80;23.80;;;;;;5039456;28;20356;-55
2021/12/26 07:01:58;;;;;;;0.63;0.40;;;19.80;23.80;;;;;;5031891;28;20036;-58
2021/12/26 07:04:41;;;;;;;0.50;0.43;;;19.80;23.80;;;;;;5035618;28;20037;-56
2021/12/26 07:07:06;;;;;;;0.82;0.50;;;19.80;23.80;;;;;;5030517;28;20028;-55
2021/12/26 07:09:32;;;;;;;0.60;0.50;;;19.80;23.80;;;;;;5039158;28;20450;-51
2021/12/26 07:11:59;;;;;;;0.68;0.50;;;19.80;23.80;;;;;;5031400;28;20075;-59
2021/12/26 07:14:37;;;;;;;0.80;0.40;;;19.70;23.80;;;;;;5038522;28;20020;-57
2021/12/26 07:17:03;;;;;;;0.50;0.38;;;19.70;23.80;;;;;;5032366;28;20025;-55
2021/12/26 07:19:29;;;;;;;0.50;0.47;;;19.80;23.80;;;;;;5039014;28;20432;-57
2021/12/26 07:22:01;;;;;;;0.40;0.40;;;19.70;23.70;;;;;;5027135;28;20348;-58
2021/12/26 07:24:27;;;;;;;0.30;0.30;;;19.80;23.80;;;;;;5038191;28;20107;-58
2021/12/26 07:26:53;;;;;;;0.88;0.55;;;19.80;23.80;;;;;;5030571;28;20108;-58
2021/12/26 07:29:47;;;;;;;0.85;0.52;;;19.70;23.80;;;;;;5055655;28;20328;-53
2021/12/26 07:32:13;;;;;;;0.65;0.50;;;19.70;23.80;;;;;;5037397;28;20079;-54
2021/12/26 07:34:40;;;;;;;0.52;0.32;;;19.70;23.80;;;;;;5030370;28;20029;-56
2021/12/26 07:37:07;;;;;;;0.50;0.40;;;19.70;23.90;;;;;;5024804;28;20443;-57
2021/12/26 07:39:38;;;;;;;0.43;0.40;;;19.70;23.80;;;;;;5051298;28;20021;-56
2021/12/26 07:42:04;;;;;;;0.63;0.50;;;19.70;23.80;;;;;;5038344;28;20510;-52
2021/12/26 07:44:59;;;;;;;;;;;19.70;23.80;;;;;;4999956;28;20358;-51
2021/12/26 07:47:32;;;;;;;0.63;0.50;;;19.70;23.90;;;;;;5021294;28;19940;-58
2021/12/26 07:49:59;;;;;;;0.90;0.50;;;19.60;23.90;;;;;;5024515;28;20301;-53
2021/12/26 07:52:54;;;;;;;1.40;0.50;;;19.70;23.90;;;;;;4980270;28;20035;-58
2021/12/26 07:55:46;;;;;;;1.08;0.50;;;19.70;23.80;;;;;;5015833;28;20041;-56
2021/12/26 07:58:30;;;;;;;0.88;0.50;;;19.70;23.80;;;;;;5049786;28;20126;-50
2021/12/26 08:01:14;;;;;;;0.20;0.20;;;19.80;23.70;;;;;;5051829;28;20466;-58
2021/12/26 08:04:01;;;;;;;0.40;0.40;;;19.90;23.80;;;;;;5015025;28;20285;-54
2021/12/26 08:06:46;;;;;;;0.60;0.40;;;20.00;23.70;;;;;;5011692;28;20095;-52
2021/12/26 08:09:12;;;;;;;0.75;0.45;;;20.10;23.70;;;;;;5013704;28;20157;-56
2021/12/26 08:11:38;;;;;;;1.05;0.60;;;20.20;23.60;;;;;;5012672;28;20033;-55
2021/12/26 08:14:03;;;;;;;1.23;0.50;;;20.30;23.50;;;;;;5012721;28;20025;-54
2021/12/26 08:16:29;;;;;;;0.73;0.40;;;20.40;23.50;;;;;;5015694;28;20045;-55
2021/12/26 08:18:55;;;;;;;1.90;0.60;;;20.50;23.50;;;;;;5000790;28;20023;-54
2021/12/26 08:21:22;;;;;;;1.23;0.50;;;20.60;23.50;;;;;;5016598;28;20030;-55
2021/12/26 08:23:47;;;;;;;1.95;0.55;;;20.70;23.60;;;;;;5007005;28;20365;-52
2021/12/26 08:26:14;;;;;;;1.65;0.40;;;20.90;23.70;;;;;;5009406;28;20045;-57
2021/12/26 08:28:40;;;;;;;1.13;0.50;;;21.00;23.60;;;;;;5012389;28;20029;-57
2021/12/26 08:31:07;;;;;;;1.25;0.60;;;21.00;23.50;;;;;;5010583;28;20033;-57
2021/12/26 08:33:33;;;;;;;1.02;0.63;;;21.10;23.40;;;;;;5006708;28;20101;-58
2021/12/26 08:35:59;;;;;;;0.65;0.50;;;21.20;23.30;;;;;;5012632;28;20096;-53
2021/12/26 08:38:25;;;;;;;0.50;0.40;;;21.30;23.30;;;;;;5011377;28;20365;-54
2021/12/26 08:40:54;;;;;;;1.27;0.65;;;21.40;23.20;;;;;;5015297;28;20028;-54
2021/12/26 08:43:20;;;;;;;0.75;0.50;;;21.50;23.10;;;;;;5002311;28;20037;-59
2021/12/26 08:45:47;;;;;;;0.65;0.40;;;21.60;23.10;;;;;;4995911;28;20037;-54
2021/12/26 08:48:13;;;;;;;0.50;0.50;;;21.70;23.10;;;;;;4997659;28;20018;-59
2021/12/26 08:50:39;;;;;;;0.30;0.30;;;21.70;23.00;;;;;;4995998;28;20077;-57
2021/12/26 08:53:05;;;;;;;0.70;0.50;;;21.80;22.90;;;;;;4999246;28;20438;-57
2021/12/26 08:55:32;;;;;;;0.57;0.50;;;21.90;22.80;;;;;;5009338;28;20096;-57
2021/12/26 08:57:58;;;;;;;1.35;0.60;;;21.90;22.80;;;;;;5004036;28;20022;-57
2021/12/26 09:00:24;;;;;;;0.47;0.45;;;22.00;22.70;;;;;;5014269;28;20091;-59
2021/12/26 09:02:51;;;;;;;0.50;0.50;;;22.10;22.60;;;;;;5018674;28;20068;-52
2021/12/26 09:05:17;;;;;;;0.50;0.40;;;22.10;22.60;;;;;;5054360;28;20025;-55
2021/12/26 09:07:43;;;;;;;1.40;0.60;;;22.20;22.60;;;;;;5049112;28;20026;-55
2021/12/26 09:10:11;;;;;;;0.80;0.60;;;22.20;22.50;;;;;;5039578;28;20045;-56
2021/12/26 09:12:38;;;;;;;0.80;0.70;;;22.30;22.40;;;;;;5039494;28;20031;-57
2021/12/26 09:15:07;;;;;;;0.70;0.50;;;22.30;22.40;;;;;;5054448;28;20034;-53
2021/12/26 09:17:33;;;;;;;1.00;0.70;;;22.40;22.50;;;;;;5030072;28;20504;-58
2021/12/26 09:19:58;;;;;;;0.73;0.70;;;22.40;22.40;;;;;;5052576;28;20052;-57
2021/12/26 09:22:24;;;;;;;1.23;0.80;;;22.50;22.40;;;;;;5047479;28;20025;-57
2021/12/26 09:24:51;;;;;;;0.65;0.47;;;22.50;22.30;;;;;;5050576;28;20025;-59
2021/12/26 09:27:18;;;;;;;0.90;0.52;;;22.60;22.30;;;;;;5049887;28;20071;-59
2021/12/26 09:29:44;;;;;;;1.17;0.70;;;22.60;22.30;;;;;;5048514;28;20432;-58
2021/12/26 09:32:10;;;;;;;0.80;0.52;;;22.60;22.20;;;;;;5048304;28;20033;-59
2021/12/26 09:34:36;;;;;;;1.40;0.70;;;22.70;22.20;;;;;;5036177;28;20124;-58
2021/12/26 09:37:05;;;;;;;0.80;0.60;;;22.70;22.20;;;;;;5046021;28;20032;-60
2021/12/26 09:39:31;;;;;;;0.70;0.60;;;22.80;22.20;;;;;;5046890;28;20033;-56
2021/12/26 09:41:57;;;;;;;0.70;0.60;;;22.80;22.20;;;;;;5034797;28;20030;-60
2021/12/26 09:44:23;;;;;;;0.57;0.43;;;22.90;22.20;;;;;;5042582;28;20163;-59
2021/12/26 09:46:49;;;;;;;0.75;0.60;;;22.90;22.20;;;;;;5038493;28;20116;-60
2021/12/26 09:49:16;;;;;;;0.52;0.50;;;22.90;22.20;;;;;;5045683;28;20036;-61
2021/12/26 09:51:42;;;;;;;1.17;0.63;;;22.90;22.20;;;;;;5051541;28;20040;-55
2021/12/26 09:54:09;;;;;;;0.65;0.60;;;23.00;22.20;;;;;;5044130;28;20106;-57
2021/12/26 09:56:35;;;;;;;0.80;0.50;;;23.00;22.10;;;;;;5043838;28;20348;-57
2021/12/26 09:59:05;;;;;;;0.57;0.50;;;23.00;22.60;;;;;;5057756;28;20056;-60
2021/12/26 10:01:35;;;;;;;0.80;0.60;;;23.00;22.20;;;;;;5045917;28;20098;-58
2021/12/26 10:04:14;;;;;;;0.70;0.50;;;23.10;22.30;;;;;;5037765;28;20092;-59
2021/12/26 10:06:40;;;;;;;0.82;0.57;;;23.10;22.30;;;;;;5022728;28;20122;-58
2021/12/26 10:09:08;;;;;;;0.75;0.60;;;23.10;22.30;;;;;;5037799;28;20076;-58
2021/12/26 10:11:42;;;;;;;0.65;0.55;;;23.10;22.40;;;;;;5050616;28;20479;-56
2021/12/26 10:14:11;;;;;;;1.23;0.73;;;23.10;22.30;;;;;;5057383;28;20332;-58
2021/12/26 10:16:42;;;;;;;0.50;0.50;;;23.10;22.30;;;;;;5020617;28;20357;-56
2021/12/26 10:19:09;;;;;;;0.70;0.50;;;23.10;22.30;;;;;;5037669;28;20036;-60
2021/12/26 10:21:37;;;;;;;1.10;0.70;;;23.00;22.30;;;;;;5034055;28;20032;-56
2021/12/26 10:24:17;;;;;;;0.88;0.68;;;22.90;22.30;;;;;;5057007;28;20466;-51
2021/12/26 10:26:47;;;;;;;0.88;0.50;;;22.90;22.50;;;;;;5038477;28;20111;-57
2021/12/26 10:29:28;;;;;;;0.77;0.60;;;22.90;22.60;;;;;;5037848;28;20029;-59
2021/12/26 10:32:22;;;;;;;0.68;0.68;;;22.90;22.60;;;;;;5037112;28;20026;-50
2021/12/26 10:34:53;;;;;;;0.95;0.60;;;22.80;22.60;;;;;;5011260;28;20040;-50
2021/12/26 10:37:29;;;;;;;1.02;0.70;;;22.80;22.70;;;;;;5030541;28;20025;-46
2021/12/26 10:40:11;;;;;;;1.02;0.60;;;22.80;22.60;;;;;;5036468;28;20036;-47
2021/12/26 10:42:41;;;;;;;0.80;0.50;;;22.60;22.50;;;;;;5030979;28;20029;-59
2021/12/26 10:45:12;;;;;;;1.77;0.40;;;22.50;22.50;;;;;;5037250;28;20033;-62
2021/12/26 10:47:43;;;;;;;0.60;0.60;;;22.50;22.40;;;;;;5039129;28;20110;-56
2021/12/26 10:50:14;;;;;;;0.50;0.40;;;22.40;22.40;;;;;;5037032;28;20037;-58
2021/12/26 10:52:40;;;;;;;2.60;0.93;;;22.40;22.40;;;;;;5038208;28;20029;-59
2021/12/26 10:55:11;;;;;;;1.10;0.57;;;22.40;22.40;;;;;;5043504;28;20043;-60
2021/12/26 10:57:48;;;;;;;0.80;0.43;;;22.40;22.30;;;;;;5037584;28;20090;-60
2021/12/26 11:00:19;;;;;;;1.15;0.63;;;22.40;22.30;;;;;;5055333;28;20029;-58
2021/12/26 11:02:45;;;;;;;0.70;0.50;;;22.30;22.20;;;;;;5029227;28;20327;-56
2021/12/26 11:05:18;;;;;;;0.98;0.60;;;22.30;22.20;;;;;;5014924;28;20036;-59
2021/12/26 11:07:57;;;;;;;0.85;0.70;;;22.30;22.20;;;;;;5016661;28;20045;-59
2021/12/26 11:10:43;;;;;;;1.00;0.65;;;22.20;22.00;;;;;;5002012;28;20044;-58
2021/12/26 11:13:19;;;;;;;0.70;0.57;;;22.20;22.00;;;;;;5000574;28;20507;-58
2021/12/26 11:15:46;;;;;;;0.55;0.55;;;22.20;22.10;;;;;;5022161;28;20038;-59
2021/12/26 11:18:17;;;;;;;0.60;0.50;;;22.10;22.10;;;;;;5014870;28;20060;-59
2021/12/26 11:20:52;;;;;;;0.68;0.60;;;22.10;22.10;;;;;;5013298;28;20026;-59
2021/12/26 11:23:28;;;;;;;0.90;0.60;;;22.10;22.10;;;;;;5016702;28;20433;-57
2021/12/26 11:25:55;;;;;;;1.02;0.65;;;22.10;22.10;;;;;;5000993;28;20036;-57
2021/12/26 11:28:28;;;;;;;0.90;0.70;;;22.10;22.20;;;;;;4997222;28;20108;-57
2021/12/26 11:30:55;;;;;;;1.35;0.70;;;22.10;22.20;;;;;;5011564;28;20041;-49
2021/12/26 11:33:21;;;;;;;0.90;0.60;;;22.10;22.30;;;;;;5010296;28;20038;-59
2021/12/26 11:35:49;;;;;;;1.10;0.50;;;22.10;22.40;;;;;;4997381;28;20466;-58
2021/12/26 11:38:19;;;;;;;1.02;0.70;;;22.00;22.30;;;;;;4996502;28;20113;-60
2021/12/26 11:41:47;;;;;;;1.75;0.60;;;22.00;22.40;;;;;;5007316;28;20033;-60
2021/12/26 11:45:06;;;;;;;0.70;0.60;;;22.00;22.30;;;;;;5008029;28;20037;-59
2021/12/26 11:48:26;;;;;;;0.63;0.43;;;22.00;22.30;;;;;;5011875;28;20037;-59
2021/12/26 11:51:19;;;;;;;0.90;0.50;;;22.00;22.40;;;;;;4997263;28;20049;-60
2021/12/26 11:54:41;;;;;;;1.13;0.70;;;22.00;22.60;;;;;;4957459;28;20481;-59
2021/12/26 11:57:34;;;;;;;0.90;0.70;;;22.00;22.90;;;;;;4959031;28;20038;-58
2021/12/26 12:00:06;;;;;;;0.90;0.70;;;22.00;22.90;;;;;;4994386;28;20383;-57
2021/12/26 12:02:49;;;;;;;0.95;0.47;;;22.00;22.90;;;;;;5023431;28;20049;-60
2021/12/26 12:05:20;;;;;;;0.77;0.60;;;22.00;22.90;;;;;;5045239;28;20021;-60
2021/12/26 12:07:49;;;;;;;1.13;0.75;;;22.00;22.90;;;;;;5055699;28;20024;-60
2021/12/26 12:10:50;;;;;;;1.27;0.60;;;22.00;22.90;;;;;;5042606;28;20037;-54
2021/12/26 12:13:25;;;;;;;1.70;0.70;;;22.00;22.90;;;;;;5044966;28;20029;-51
2021/12/26 12:15:56;;;;;;;1.52;0.52;;;22.00;23.40;;;;;;5041345;28;20079;-56
2021/12/26 12:18:32;;;;;;;0.77;0.60;;;22.00;23.80;;;;;;5043734;28;20022;-58
2021/12/26 12:21:30;;;;;;;1.08;0.60;;;22.00;24.00;;;;;;5035670;28;20018;-56
2021/12/26 12:24:09;;;;;;;0.75;0.50;;;22.00;24.10;;;;;;5047587;28;20028;-58
2021/12/26 12:26:45;;;;;;;0.75;0.55;;;22.10;24.80;;;;;;5045609;28;20104;-56
2021/12/26 12:29:35;;;;;;;0.75;0.60;;;22.10;24.40;;;;;;5045089;28;20074;-57
2021/12/26 12:32:07;;;;;;;0.82;0.60;;;22.10;24.50;;;;;;5049029;28;20021;-58
2021/12/26 12:34:48;;;;;;;0.90;0.57;;;22.10;24.50;;;;;;5041111;28;20036;-58
2021/12/26 12:37:31;;;;;;;2.92;1.15;;;22.10;24.60;;;;;;5054043;28;20073;-60
2021/12/26 12:40:16;;;;;;;5.57;2.83;;;22.20;24.80;;;;;;5034107;28;20379;-59
2021/12/26 12:43:03;;;;;;;9.70;4.10;;;22.10;25.40;;;;;;5024891;28;20033;-55
2021/12/26 12:45:51;;;;;;;9.65;4.25;;;22.20;26.30;;;;;;5048460;28;20024;-55
2021/12/26 12:48:35;;;;;;;11.95;5.85;;;22.20;27.30;;;;;;5045228;28;20033;-54
2021/12/26 12:51:24;;;;;;;13.63;6.55;;;22.30;28.40;;;;;;5034386;28;20057;-51
2021/12/26 12:53:55;;;;;;;11.90;6.00;;;22.30;29.00;;;;;;5051655;28;20594;-54
2021/12/26 12:56:33;;;;;;;20.65;8.20;;;22.30;29.60;;;;;;5052295;28;20029;-53
2021/12/26 12:59:14;;;;;;;20.33;8.48;;;22.40;30.20;;;;;;5047704;28;20545;-55
2021/12/26 13:01:46;;;;;;;18.35;6.00;;;22.40;31.20;;;;;;5034117;28;20128;-58
2021/12/26 13:04:13;;;;;;;11.45;5.00;;;22.40;30.80;;;;;;5046998;28;20072;-51
2021/12/26 13:06:55;;;;;;;11.60;5.47;;;22.40;30.10;;;;;;5054601;28;20894;-51
2021/12/26 13:09:21;;;;;;;9.60;4.70;;;22.50;30.60;;;;;;5041538;28;20028;-55
2021/12/26 13:12:03;;;;;;;10.18;4.82;;;22.40;30.90;;;;;;5046065;28;20118;-56
2021/12/26 13:14:41;;;;;;;14.27;6.40;;;22.50;31.50;;;;;;5038908;28;20039;-48
2021/12/26 13:17:23;;;;;;;12.70;5.85;;;22.50;32.50;;;;;;5046105;28;20459;-53